sensor_id;sensor_type;location;lat;lon;timestamp;P1;durP1;ratioP1;P2;durP2;ratioP2
29280;SDS011;25048;49.590;11.026;2023-02-28T00:01:12;188.70;;;95.33;;
29280;SDS011;25048;49.590;11.026;2023-02-28T00:03:41;183.43;;;95.47;;
29280;SDS011;25048;49.590;11.026;2023-02-28T00:06:08;68.53;;;61.30;;
29280;SDS011;25048;49.590;11.026;2023-02-28T00:08:37;224.07;;;100.77;;
29280;SDS011;25048;49.590;11.026;2023-02-28T00:11:06;307.03;;;101.33;;
29280;SDS011;25048;49.590;11.026;2023-02-28T00:13:36;198.53;;;95.30;;
29280;SDS011;25048;49.590;11.026;2023-02-28T00:16:11;292.70;;;99.97;;
29280;SDS011;25048;49.590;11.026;2023-02-28T00:18:36;186.43;;;95.77;;
29280;SDS011;25048;49.590;11.026;2023-02-28T00:21:04;278.60;;;99.93;;
29280;SDS011;25048;49.590;11.026;2023-02-28T00:23:32;307.73;;;104.27;;
29280;SDS011;25048;49.590;11.026;2023-02-28T00:25:59;342.97;;;106.70;;
29280;SDS011;25048;49.590;11.026;2023-02-28T00:28:27;159.10;;;93.90;;
29280;SDS011;25048;49.590;11.026;2023-02-28T00:30:55;201.23;;;100.10;;
29280;SDS011;25048;49.590;11.026;2023-02-28T00:33:23;253.63;;;106.60;;
29280;SDS011;25048;49.590;11.026;2023-02-28T00:35:50;334.53;;;102.10;;
29280;SDS011;25048;49.590;11.026;2023-02-28T00:38:18;257.23;;;106.97;;
29280;SDS011;25048;49.590;11.026;2023-02-28T00:40:45;229.83;;;100.33;;
29280;SDS011;25048;49.590;11.026;2023-02-28T00:43:13;209.60;;;101.33;;
29280;SDS011;25048;49.590;11.026;2023-02-28T00:45:40;241.87;;;102.27;;
29280;SDS011;25048;49.590;11.026;2023-02-28T00:48:08;282.33;;;101.83;;
29280;SDS011;25048;49.590;11.026;2023-02-28T00:50:35;200.97;;;98.47;;
29280;SDS011;25048;49.590;11.026;2023-02-28T00:53:03;154.17;;;92.50;;
29280;SDS011;25048;49.590;11.026;2023-02-28T00:55:31;202.47;;;101.57;;
29280;SDS011;25048;49.590;11.026;2023-02-28T00:57:58;191.93;;;93.93;;
29280;SDS011;25048;49.590;11.026;2023-02-28T01:00:26;85.03;;;70.40;;
29280;SDS011;25048;49.590;11.026;2023-02-28T01:02:53;93.40;;;74.43;;
29280;SDS011;25048;49.590;11.026;2023-02-28T01:05:21;236.97;;;102.67;;
29280;SDS011;25048;49.590;11.026;2023-02-28T01:07:49;181.13;;;95.63;;
29280;SDS011;25048;49.590;11.026;2023-02-28T01:10:17;149.63;;;84.40;;
29280;SDS011;25048;49.590;11.026;2023-02-28T01:12:44;260.33;;;100.47;;
29280;SDS011;25048;49.590;11.026;2023-02-28T01:15:12;167.47;;;92.37;;
29280;SDS011;25048;49.590;11.026;2023-02-28T01:17:39;249.13;;;101.37;;
29280;SDS011;25048;49.590;11.026;2023-02-28T01:20:07;136.63;;;86.53;;
29280;SDS011;25048;49.590;11.026;2023-02-28T01:22:35;205.07;;;94.80;;
29280;SDS011;25048;49.590;11.026;2023-02-28T01:25:03;131.70;;;84.93;;
29280;SDS011;25048;49.590;11.026;2023-02-28T01:27:30;255.07;;;102.33;;
29280;SDS011;25048;49.590;11.026;2023-02-28T01:29:58;313.53;;;107.53;;
29280;SDS011;25048;49.590;11.026;2023-02-28T01:32:25;262.73;;;101.37;;
29280;SDS011;25048;49.590;11.026;2023-02-28T01:34:53;255.53;;;102.50;;
29280;SDS011;25048;49.590;11.026;2023-02-28T01:37:21;196.20;;;97.13;;
29280;SDS011;25048;49.590;11.026;2023-02-28T01:39:48;195.67;;;93.07;;
29280;SDS011;25048;49.590;11.026;2023-02-28T01:42:16;274.20;;;102.47;;
29280;SDS011;25048;49.590;11.026;2023-02-28T01:47:43;281.10;;;99.57;;
29280;SDS011;25048;49.590;11.026;2023-02-28T01:50:12;295.97;;;100.67;;
29280;SDS011;25048;49.590;11.026;2023-02-28T01:52:42;283.43;;;105.60;;
29280;SDS011;25048;49.590;11.026;2023-02-28T01:55:10;292.60;;;100.00;;
29280;SDS011;25048;49.590;11.026;2023-02-28T01:57:40;233.00;;;96.13;;
29280;SDS011;25048;49.590;11.026;2023-02-28T02:00:10;232.10;;;97.67;;
29280;SDS011;25048;49.590;11.026;2023-02-28T02:02:44;295.47;;;105.10;;
29280;SDS011;25048;49.590;11.026;2023-02-28T02:05:16;267.63;;;96.47;;
29280;SDS011;25048;49.590;11.026;2023-02-28T02:07:48;261.33;;;99.57;;
29280;SDS011;25048;49.590;11.026;2023-02-28T02:13:01;233.70;;;99.77;;
29280;SDS011;25048;49.590;11.026;2023-02-28T02:15:57;304.80;;;104.53;;
29280;SDS011;25048;49.590;11.026;2023-02-28T02:18:51;211.03;;;94.23;;
29280;SDS011;25048;49.590;11.026;2023-02-28T02:24:03;149.43;;;87.20;;
29280;SDS011;25048;49.590;11.026;2023-02-28T02:40:42;64.13;;;57.93;;
29280;SDS011;25048;49.590;11.026;2023-02-28T02:43:25;93.40;;;70.43;;
29280;SDS011;25048;49.590;11.026;2023-02-28T02:46:19;94.97;;;72.73;;
29280;SDS011;25048;49.590;11.026;2023-02-28T02:48:49;98.07;;;72.33;;
29280;SDS011;25048;49.590;11.026;2023-02-28T02:51:20;77.87;;;66.50;;
29280;SDS011;25048;49.590;11.026;2023-02-28T02:53:50;90.53;;;71.13;;
29280;SDS011;25048;49.590;11.026;2023-02-28T02:56:21;100.90;;;72.93;;
29280;SDS011;25048;49.590;11.026;2023-02-28T02:58:50;84.70;;;70.80;;
29280;SDS011;25048;49.590;11.026;2023-02-28T03:01:22;118.17;;;80.30;;
29280;SDS011;25048;49.590;11.026;2023-02-28T03:04:00;139.00;;;86.37;;
29280;SDS011;25048;49.590;11.026;2023-02-28T03:06:25;114.33;;;79.60;;
29280;SDS011;25048;49.590;11.026;2023-02-28T03:08:52;148.60;;;90.07;;
29280;SDS011;25048;49.590;11.026;2023-02-28T03:11:20;142.47;;;88.43;;
29280;SDS011;25048;49.590;11.026;2023-02-28T03:19:43;155.20;;;85.93;;
29280;SDS011;25048;49.590;11.026;2023-02-28T03:22:28;156.80;;;87.53;;
29280;SDS011;25048;49.590;11.026;2023-02-28T03:25:04;179.97;;;91.00;;
29280;SDS011;25048;49.590;11.026;2023-02-28T03:27:41;205.80;;;94.33;;
29280;SDS011;25048;49.590;11.026;2023-02-28T03:30:24;223.30;;;99.27;;
29280;SDS011;25048;49.590;11.026;2023-02-28T03:35:25;178.20;;;93.47;;
29280;SDS011;25048;49.590;11.026;2023-02-28T03:38:03;169.83;;;94.53;;
29280;SDS011;25048;49.590;11.026;2023-02-28T03:40:32;233.60;;;97.57;;
29280;SDS011;25048;49.590;11.026;2023-02-28T03:43:03;177.37;;;94.70;;
29280;SDS011;25048;49.590;11.026;2023-02-28T03:45:32;194.23;;;96.40;;
29280;SDS011;25048;49.590;11.026;2023-02-28T03:48:03;137.67;;;83.97;;
29280;SDS011;25048;49.590;11.026;2023-02-28T03:50:36;141.03;;;85.73;;
29280;SDS011;25048;49.590;11.026;2023-02-28T03:53:08;125.33;;;83.30;;
29280;SDS011;25048;49.590;11.026;2023-02-28T03:55:39;150.83;;;88.70;;
29280;SDS011;25048;49.590;11.026;2023-02-28T03:58:12;163.17;;;88.77;;
29280;SDS011;25048;49.590;11.026;2023-02-28T04:00:47;169.47;;;89.17;;
29280;SDS011;25048;49.590;11.026;2023-02-28T04:03:12;170.90;;;90.27;;
29280;SDS011;25048;49.590;11.026;2023-02-28T04:06:01;194.40;;;90.70;;
29280;SDS011;25048;49.590;11.026;2023-02-28T04:08:13;181.20;;;94.33;;
29280;SDS011;25048;49.590;11.026;2023-02-28T04:10:41;178.87;;;94.40;;
29280;SDS011;25048;49.590;11.026;2023-02-28T04:13:10;168.87;;;89.00;;
29280;SDS011;25048;49.590;11.026;2023-02-28T04:15:38;164.00;;;88.10;;
29280;SDS011;25048;49.590;11.026;2023-02-28T04:18:05;198.80;;;92.77;;
29280;SDS011;25048;49.590;11.026;2023-02-28T04:20:33;188.93;;;92.17;;
29280;SDS011;25048;49.590;11.026;2023-02-28T04:23:00;212.83;;;94.67;;
29280;SDS011;25048;49.590;11.026;2023-02-28T04:25:28;208.97;;;95.37;;
29280;SDS011;25048;49.590;11.026;2023-02-28T04:27:55;207.73;;;91.93;;
29280;SDS011;25048;49.590;11.026;2023-02-28T04:30:23;218.10;;;93.63;;
29280;SDS011;25048;49.590;11.026;2023-02-28T04:32:50;205.27;;;89.87;;
29280;SDS011;25048;49.590;11.026;2023-02-28T04:35:18;218.30;;;95.87;;
29280;SDS011;25048;49.590;11.026;2023-02-28T04:37:45;228.73;;;96.77;;
29280;SDS011;25048;49.590;11.026;2023-02-28T04:40:13;204.30;;;96.17;;
29280;SDS011;25048;49.590;11.026;2023-02-28T04:42:40;234.27;;;99.80;;
29280;SDS011;25048;49.590;11.026;2023-02-28T04:45:08;247.67;;;94.10;;
29280;SDS011;25048;49.590;11.026;2023-02-28T04:47:36;95.50;;;67.57;;
29280;SDS011;25048;49.590;11.026;2023-02-28T04:50:04;23.53;;;9.93;;
29280;SDS011;25048;49.590;11.026;2023-02-28T04:52:31;17.03;;;11.13;;
29280;SDS011;25048;49.590;11.026;2023-02-28T04:54:59;22.37;;;8.70;;
29280;SDS011;25048;49.590;11.026;2023-02-28T04:57:27;19.10;;;11.80;;
29280;SDS011;25048;49.590;11.026;2023-02-28T04:59:55;24.03;;;13.27;;
29280;SDS011;25048;49.590;11.026;2023-02-28T05:02:23;28.37;;;22.37;;
29280;SDS011;25048;49.590;11.026;2023-02-28T05:04:50;22.20;;;18.90;;
29280;SDS011;25048;49.590;11.026;2023-02-28T05:07:18;31.93;;;28.77;;
29280;SDS011;25048;49.590;11.026;2023-02-28T05:09:45;25.80;;;14.93;;
29280;SDS011;25048;49.590;11.026;2023-02-28T05:12:13;23.13;;;10.47;;
29280;SDS011;25048;49.590;11.026;2023-02-28T05:14:40;19.30;;;8.40;;
29280;SDS011;25048;49.590;11.026;2023-02-28T05:17:08;22.00;;;13.17;;
29280;SDS011;25048;49.590;11.026;2023-02-28T05:19:36;30.30;;;16.57;;
29280;SDS011;25048;49.590;11.026;2023-02-28T05:22:03;22.00;;;15.80;;
29280;SDS011;25048;49.590;11.026;2023-02-28T05:24:31;25.53;;;19.47;;
29280;SDS011;25048;49.590;11.026;2023-02-28T05:26:58;25.10;;;21.57;;
29280;SDS011;25048;49.590;11.026;2023-02-28T05:29:26;20.57;;;15.83;;
29280;SDS011;25048;49.590;11.026;2023-02-28T05:31:53;19.23;;;14.80;;
29280;SDS011;25048;49.590;11.026;2023-02-28T05:34:21;17.73;;;9.33;;
29280;SDS011;25048;49.590;11.026;2023-02-28T05:36:48;32.50;;;29.07;;
29280;SDS011;25048;49.590;11.026;2023-02-28T05:39:16;27.43;;;20.83;;
29280;SDS011;25048;49.590;11.026;2023-02-28T05:41:43;26.53;;;23.13;;
29280;SDS011;25048;49.590;11.026;2023-02-28T05:44:11;43.33;;;38.57;;
29280;SDS011;25048;49.590;11.026;2023-02-28T05:46:38;38.80;;;34.90;;
29280;SDS011;25048;49.590;11.026;2023-02-28T05:49:06;183.70;;;96.40;;
29280;SDS011;25048;49.590;11.026;2023-02-28T05:51:33;245.73;;;101.40;;
29280;SDS011;25048;49.590;11.026;2023-02-28T05:54:02;50.40;;;45.80;;
29280;SDS011;25048;49.590;11.026;2023-02-28T05:56:29;65.03;;;58.07;;
29280;SDS011;25048;49.590;11.026;2023-02-28T05:58:57;116.33;;;81.20;;
29280;SDS011;25048;49.590;11.026;2023-02-28T06:01:30;113.70;;;78.50;;
29280;SDS011;25048;49.590;11.026;2023-02-28T06:04:11;150.80;;;88.40;;
29280;SDS011;25048;49.590;11.026;2023-02-28T06:06:40;198.80;;;90.73;;
29280;SDS011;25048;49.590;11.026;2023-02-28T06:09:08;141.30;;;88.33;;
29280;SDS011;25048;49.590;11.026;2023-02-28T06:11:35;165.80;;;88.70;;
29280;SDS011;25048;49.590;11.026;2023-02-28T06:14:03;220.63;;;99.20;;
29280;SDS011;25048;49.590;11.026;2023-02-28T06:16:31;288.57;;;100.77;;
29280;SDS011;25048;49.590;11.026;2023-02-28T06:19:02;403.53;;;106.30;;
29280;SDS011;25048;49.590;11.026;2023-02-28T06:21:30;413.87;;;103.30;;
29280;SDS011;25048;49.590;11.026;2023-02-28T06:23:58;311.97;;;99.63;;
29280;SDS011;25048;49.590;11.026;2023-02-28T06:26:26;280.10;;;97.83;;
29280;SDS011;25048;49.590;11.026;2023-02-28T06:28:53;31.67;;;26.37;;
29280;SDS011;25048;49.590;11.026;2023-02-28T06:31:21;43.97;;;39.60;;
29280;SDS011;25048;49.590;11.026;2023-02-28T06:33:50;269.03;;;103.30;;
29280;SDS011;25048;49.590;11.026;2023-02-28T06:36:18;148.93;;;92.37;;
29280;SDS011;25048;49.590;11.026;2023-02-28T06:38:45;125.70;;;84.23;;
29280;SDS011;25048;49.590;11.026;2023-02-28T06:41:15;116.50;;;83.10;;
29280;SDS011;25048;49.590;11.026;2023-02-28T06:43:42;108.93;;;78.53;;
29280;SDS011;25048;49.590;11.026;2023-02-28T06:46:11;75.97;;;67.30;;
29280;SDS011;25048;49.590;11.026;2023-02-28T06:48:40;73.83;;;65.93;;
29280;SDS011;25048;49.590;11.026;2023-02-28T06:51:11;64.63;;;58.00;;
29280;SDS011;25048;49.590;11.026;2023-02-28T06:53:40;84.67;;;75.30;;
29280;SDS011;25048;49.590;11.026;2023-02-28T06:56:09;109.40;;;82.13;;
29280;SDS011;25048;49.590;11.026;2023-02-28T06:58:38;111.67;;;84.63;;
29280;SDS011;25048;49.590;11.026;2023-02-28T07:01:07;118.23;;;86.83;;
29280;SDS011;25048;49.590;11.026;2023-02-28T07:03:35;213.73;;;106.27;;
29280;SDS011;25048;49.590;11.026;2023-02-28T07:06:02;138.10;;;93.33;;
29280;SDS011;25048;49.590;11.026;2023-02-28T07:08:32;92.47;;;81.97;;
29280;SDS011;25048;49.590;11.026;2023-02-28T07:11:01;103.03;;;83.20;;
29280;SDS011;25048;49.590;11.026;2023-02-28T07:13:29;132.77;;;94.90;;
29280;SDS011;25048;49.590;11.026;2023-02-28T07:15:57;209.73;;;110.57;;
29280;SDS011;25048;49.590;11.026;2023-02-28T07:18:27;172.13;;;106.03;;
29280;SDS011;25048;49.590;11.026;2023-02-28T07:20:54;174.97;;;111.07;;
29280;SDS011;25048;49.590;11.026;2023-02-28T07:23:22;151.67;;;100.87;;
29280;SDS011;25048;49.590;11.026;2023-02-28T07:25:50;68.30;;;62.53;;
29280;SDS011;25048;49.590;11.026;2023-02-28T07:28:18;81.87;;;74.00;;
29280;SDS011;25048;49.590;11.026;2023-02-28T07:30:46;46.77;;;42.67;;
29280;SDS011;25048;49.590;11.026;2023-02-28T07:33:13;45.67;;;41.37;;
29280;SDS011;25048;49.590;11.026;2023-02-28T07:35:41;52.30;;;47.80;;
29280;SDS011;25048;49.590;11.026;2023-02-28T07:38:09;38.03;;;34.27;;
29280;SDS011;25048;49.590;11.026;2023-02-28T07:40:38;37.40;;;34.30;;
29280;SDS011;25048;49.590;11.026;2023-02-28T07:43:05;38.97;;;35.70;;
29280;SDS011;25048;49.590;11.026;2023-02-28T07:45:33;30.07;;;27.53;;
29280;SDS011;25048;49.590;11.026;2023-02-28T07:48:00;25.90;;;21.17;;
29280;SDS011;25048;49.590;11.026;2023-02-28T07:50:28;21.63;;;15.00;;
29280;SDS011;25048;49.590;11.026;2023-02-28T07:52:57;47.43;;;43.83;;
29280;SDS011;25048;49.590;11.026;2023-02-28T07:55:25;39.57;;;36.20;;
29280;SDS011;25048;49.590;11.026;2023-02-28T07:57:53;33.30;;;30.50;;
29280;SDS011;25048;49.590;11.026;2023-02-28T08:00:21;42.20;;;38.13;;
29280;SDS011;25048;49.590;11.026;2023-02-28T08:02:48;36.10;;;33.13;;
29280;SDS011;25048;49.590;11.026;2023-02-28T08:05:16;33.53;;;30.93;;
29280;SDS011;25048;49.590;11.026;2023-02-28T08:07:44;37.87;;;34.47;;
29280;SDS011;25048;49.590;11.026;2023-02-28T08:10:13;46.30;;;42.43;;
29280;SDS011;25048;49.590;11.026;2023-02-28T08:12:40;48.43;;;44.47;;
29280;SDS011;25048;49.590;11.026;2023-02-28T08:15:08;42.87;;;38.57;;
29280;SDS011;25048;49.590;11.026;2023-02-28T08:17:36;52.90;;;48.80;;
29280;SDS011;25048;49.590;11.026;2023-02-28T08:20:03;47.03;;;43.07;;
29280;SDS011;25048;49.590;11.026;2023-02-28T08:22:31;35.73;;;32.80;;
29280;SDS011;25048;49.590;11.026;2023-02-28T08:24:59;41.60;;;38.40;;
29280;SDS011;25048;49.590;11.026;2023-02-28T08:27:29;46.67;;;43.23;;
29280;SDS011;25048;49.590;11.026;2023-02-28T08:29:55;42.80;;;38.83;;
29280;SDS011;25048;49.590;11.026;2023-02-28T08:32:23;56.77;;;52.67;;
29280;SDS011;25048;49.590;11.026;2023-02-28T08:34:51;56.17;;;51.17;;
29280;SDS011;25048;49.590;11.026;2023-02-28T08:37:18;57.13;;;52.80;;
29280;SDS011;25048;49.590;11.026;2023-02-28T08:39:46;26.40;;;18.63;;
29280;SDS011;25048;49.590;11.026;2023-02-28T08:42:13;23.17;;;17.40;;
29280;SDS011;25048;49.590;11.026;2023-02-28T08:44:41;25.67;;;20.73;;
29280;SDS011;25048;49.590;11.026;2023-02-28T08:47:08;22.20;;;15.43;;
29280;SDS011;25048;49.590;11.026;2023-02-28T08:49:36;23.73;;;16.30;;
29280;SDS011;25048;49.590;11.026;2023-02-28T08:52:04;25.60;;;16.00;;
29280;SDS011;25048;49.590;11.026;2023-02-28T08:54:31;24.87;;;20.90;;
29280;SDS011;25048;49.590;11.026;2023-02-28T08:57:00;20.17;;;15.07;;
29280;SDS011;25048;49.590;11.026;2023-02-28T08:59:28;21.27;;;18.87;;
29280;SDS011;25048;49.590;11.026;2023-02-28T09:01:56;24.23;;;12.37;;
29280;SDS011;25048;49.590;11.026;2023-02-28T09:04:23;28.13;;;23.33;;
29280;SDS011;25048;49.590;11.026;2023-02-28T09:06:51;24.50;;;14.80;;
29280;SDS011;25048;49.590;11.026;2023-02-28T09:09:19;20.03;;;15.57;;
29280;SDS011;25048;49.590;11.026;2023-02-28T09:11:46;18.97;;;9.97;;
29280;SDS011;25048;49.590;11.026;2023-02-28T09:14:14;32.07;;;20.40;;
29280;SDS011;25048;49.590;11.026;2023-02-28T09:16:43;23.03;;;13.70;;
29280;SDS011;25048;49.590;11.026;2023-02-28T09:19:11;27.57;;;25.00;;
29280;SDS011;25048;49.590;11.026;2023-02-28T09:21:39;32.90;;;17.13;;
29280;SDS011;25048;49.590;11.026;2023-02-28T09:24:07;21.53;;;17.80;;
29280;SDS011;25048;49.590;11.026;2023-02-28T09:26:38;27.60;;;24.73;;
29280;SDS011;25048;49.590;11.026;2023-02-28T09:29:06;25.20;;;21.50;;
29280;SDS011;25048;49.590;11.026;2023-02-28T09:31:33;27.20;;;20.73;;
29280;SDS011;25048;49.590;11.026;2023-02-28T09:34:01;21.90;;;19.67;;
29280;SDS011;25048;49.590;11.026;2023-02-28T09:36:30;41.60;;;37.97;;
29280;SDS011;25048;49.590;11.026;2023-02-28T09:38:59;19.10;;;15.93;;
29280;SDS011;25048;49.590;11.026;2023-02-28T09:41:26;34.57;;;31.67;;
29280;SDS011;25048;49.590;11.026;2023-02-28T09:43:58;27.10;;;24.97;;
29280;SDS011;25048;49.590;11.026;2023-02-28T09:49:08;50.97;;;46.73;;
29280;SDS011;25048;49.590;11.026;2023-02-28T09:51:45;44.13;;;39.60;;
29280;SDS011;25048;49.590;11.026;2023-02-28T09:54:29;86.00;;;79.23;;
29280;SDS011;25048;49.590;11.026;2023-02-28T09:57:00;22.00;;;19.83;;
29280;SDS011;25048;49.590;11.026;2023-02-28T10:05:23;172.27;;;157.70;;
29280;SDS011;25048;49.590;11.026;2023-02-28T10:08:00;177.17;;;160.37;;
29280;SDS011;25048;49.590;11.026;2023-02-28T10:10:52;135.63;;;125.20;;
29280;SDS011;25048;49.590;11.026;2023-02-28T10:13:37;144.87;;;133.97;;
29280;SDS011;25048;49.590;11.026;2023-02-28T10:16:25;129.93;;;120.67;;
29280;SDS011;25048;49.590;11.026;2023-02-28T10:19:11;132.63;;;122.37;;
29280;SDS011;25048;49.590;11.026;2023-02-28T10:21:41;174.43;;;160.10;;
29280;SDS011;25048;49.590;11.026;2023-02-28T10:24:19;165.03;;;152.43;;
29280;SDS011;25048;49.590;11.026;2023-02-28T10:26:46;150.37;;;139.13;;
29280;SDS011;25048;49.590;11.026;2023-02-28T10:29:22;96.37;;;90.03;;
29280;SDS011;25048;49.590;11.026;2023-02-28T10:31:50;81.43;;;75.30;;
29280;SDS011;25048;49.590;11.026;2023-02-28T10:34:18;71.97;;;66.87;;
29280;SDS011;25048;49.590;11.026;2023-02-28T10:36:45;68.83;;;63.43;;
29280;SDS011;25048;49.590;11.026;2023-02-28T10:39:34;60.17;;;55.77;;
29280;SDS011;25048;49.590;11.026;2023-02-28T10:42:29;63.03;;;59.03;;
29280;SDS011;25048;49.590;11.026;2023-02-28T10:45:09;62.20;;;57.47;;
29280;SDS011;25048;49.590;11.026;2023-02-28T10:47:34;61.17;;;56.93;;
29280;SDS011;25048;49.590;11.026;2023-02-28T10:50:08;56.00;;;52.10;;
29280;SDS011;25048;49.590;11.026;2023-02-28T10:52:43;190.67;;;176.80;;
29280;SDS011;25048;49.590;11.026;2023-02-28T10:55:14;166.67;;;154.70;;
29280;SDS011;25048;49.590;11.026;2023-02-28T10:57:43;67.03;;;62.07;;
29280;SDS011;25048;49.590;11.026;2023-02-28T11:00:14;82.60;;;77.23;;
29280;SDS011;25048;49.590;11.026;2023-02-28T11:02:47;95.67;;;89.17;;
29280;SDS011;25048;49.590;11.026;2023-02-28T11:08:12;54.53;;;49.77;;
29280;SDS011;25048;49.590;11.026;2023-02-28T11:10:44;48.87;;;44.90;;
29280;SDS011;25048;49.590;11.026;2023-02-28T11:13:17;58.73;;;54.33;;
29280;SDS011;25048;49.590;11.026;2023-02-28T11:15:53;56.80;;;52.23;;
29280;SDS011;25048;49.590;11.026;2023-02-28T11:18:27;139.27;;;129.10;;
29280;SDS011;25048;49.590;11.026;2023-02-28T11:20:59;104.33;;;97.27;;
29280;SDS011;25048;49.590;11.026;2023-02-28T11:23:30;97.77;;;91.43;;
29280;SDS011;25048;49.590;11.026;2023-02-28T11:26:00;113.33;;;105.57;;
29280;SDS011;25048;49.590;11.026;2023-02-28T11:28:31;144.43;;;134.90;;
29280;SDS011;25048;49.590;11.026;2023-02-28T11:31:02;152.40;;;142.57;;
29280;SDS011;25048;49.590;11.026;2023-02-28T11:33:45;110.47;;;102.90;;
29280;SDS011;25048;49.590;11.026;2023-02-28T11:36:21;90.77;;;84.10;;
29280;SDS011;25048;49.590;11.026;2023-02-28T11:38:54;96.63;;;90.30;;
29280;SDS011;25048;49.590;11.026;2023-02-28T11:47:46;128.43;;;119.40;;
29280;SDS011;25048;49.590;11.026;2023-02-28T11:53:10;150.07;;;140.33;;
29280;SDS011;25048;49.590;11.026;2023-02-28T11:55:37;209.57;;;196.23;;
29280;SDS011;25048;49.590;11.026;2023-02-28T12:00:48;115.60;;;107.23;;
29280;SDS011;25048;49.590;11.026;2023-02-28T12:03:42;122.67;;;114.17;;
29280;SDS011;25048;49.590;11.026;2023-02-28T12:11:54;181.30;;;169.20;;
29280;SDS011;25048;49.590;11.026;2023-02-28T12:14:36;89.73;;;83.67;;
29280;SDS011;25048;49.590;11.026;2023-02-28T12:17:27;195.30;;;182.90;;
29280;SDS011;25048;49.590;11.026;2023-02-28T12:22:51;174.80;;;163.47;;
29280;SDS011;25048;49.590;11.026;2023-02-28T12:28:10;219.53;;;204.77;;
29280;SDS011;25048;49.590;11.026;2023-02-28T12:30:45;200.47;;;187.17;;
29280;SDS011;25048;49.590;11.026;2023-02-28T12:33:16;81.20;;;75.50;;
29280;SDS011;25048;49.590;11.026;2023-02-28T12:35:55;98.20;;;91.07;;
29280;SDS011;25048;49.590;11.026;2023-02-28T12:38:34;105.73;;;98.47;;
29280;SDS011;25048;49.590;11.026;2023-02-28T12:41:27;126.87;;;118.60;;
29280;SDS011;25048;49.590;11.026;2023-02-28T12:43:40;286.63;;;265.93;;
29280;SDS011;25048;49.590;11.026;2023-02-28T12:46:18;279.73;;;261.30;;
29280;SDS011;25048;49.590;11.026;2023-02-28T12:49:32;542.67;;;392.80;;
29280;SDS011;25048;49.590;11.026;2023-02-28T12:51:24;757.87;;;391.67;;
29280;SDS011;25048;49.590;11.026;2023-02-28T12:59:41;759.37;;;478.03;;
29280;SDS011;25048;49.590;11.026;2023-02-28T13:02:33;646.60;;;472.07;;
29280;SDS011;25048;49.590;11.026;2023-02-28T13:05:06;754.10;;;486.53;;
29280;SDS011;25048;49.590;11.026;2023-02-28T13:11:29;706.67;;;479.70;;
29280;SDS011;25048;49.590;11.026;2023-02-28T13:13:13;677.73;;;512.70;;
29280;SDS011;25048;49.590;11.026;2023-02-28T13:15:41;708.53;;;510.77;;
29280;SDS011;25048;49.590;11.026;2023-02-28T13:21:21;694.53;;;490.47;;
29280;SDS011;25048;49.590;11.026;2023-02-28T13:26:11;680.50;;;527.53;;
29280;SDS011;25048;49.590;11.026;2023-02-28T13:29:00;707.57;;;539.80;;
29280;SDS011;25048;49.590;11.026;2023-02-28T13:34:37;721.43;;;537.80;;
29280;SDS011;25048;49.590;11.026;2023-02-28T13:43:00;683.03;;;570.60;;
29280;SDS011;25048;49.590;11.026;2023-02-28T13:45:28;685.67;;;572.70;;
29280;SDS011;25048;49.590;11.026;2023-02-28T13:48:16;672.57;;;567.83;;
29280;SDS011;25048;49.590;11.026;2023-02-28T13:50:51;709.17;;;578.90;;
29280;SDS011;25048;49.590;11.026;2023-02-28T13:54:04;728.57;;;588.83;;
29280;SDS011;25048;49.590;11.026;2023-02-28T13:56:21;676.27;;;560.63;;
29280;SDS011;25048;49.590;11.026;2023-02-28T13:59:15;687.57;;;577.73;;
29280;SDS011;25048;49.590;11.026;2023-02-28T14:07:44;687.00;;;604.40;;
29280;SDS011;25048;49.590;11.026;2023-02-28T14:10:15;734.40;;;612.80;;
29280;SDS011;25048;49.590;11.026;2023-02-28T14:12:55;690.87;;;611.97;;
29280;SDS011;25048;49.590;11.026;2023-02-28T14:15:44;690.77;;;602.30;;
29280;SDS011;25048;49.590;11.026;2023-02-28T14:18:36;677.03;;;607.83;;
29280;SDS011;25048;49.590;11.026;2023-02-28T14:23:45;692.77;;;620.70;;
29280;SDS011;25048;49.590;11.026;2023-02-28T14:35:05;726.50;;;636.20;;
29280;SDS011;25048;49.590;11.026;2023-02-28T14:37:48;734.13;;;613.30;;
29280;SDS011;25048;49.590;11.026;2023-02-28T14:40:16;796.47;;;615.37;;
29280;SDS011;25048;49.590;11.026;2023-02-28T14:48:10;797.10;;;654.23;;
29280;SDS011;25048;49.590;11.026;2023-02-28T14:50:48;796.53;;;650.50;;
29280;SDS011;25048;49.590;11.026;2023-02-28T14:53:17;812.73;;;617.57;;
29280;SDS011;25048;49.590;11.026;2023-02-28T14:55:48;770.33;;;618.93;;
29280;SDS011;25048;49.590;11.026;2023-02-28T14:58:26;803.10;;;641.83;;
29280;SDS011;25048;49.590;11.026;2023-02-28T15:00:55;766.33;;;651.50;;
29280;SDS011;25048;49.590;11.026;2023-02-28T15:03:38;761.93;;;619.93;;
29280;SDS011;25048;49.590;11.026;2023-02-28T15:06:16;733.93;;;621.70;;
29280;SDS011;25048;49.590;11.026;2023-02-28T15:09:05;783.43;;;633.03;;
29280;SDS011;25048;49.590;11.026;2023-02-28T15:11:49;742.97;;;611.63;;
29280;SDS011;25048;49.590;11.026;2023-02-28T15:14:05;745.03;;;607.70;;
29280;SDS011;25048;49.590;11.026;2023-02-28T15:16:40;737.53;;;622.23;;
29280;SDS011;25048;49.590;11.026;2023-02-28T15:22:07;779.07;;;593.17;;
29280;SDS011;25048;49.590;11.026;2023-02-28T15:24:44;781.13;;;584.27;;
29280;SDS011;25048;49.590;11.026;2023-02-28T15:27:31;772.87;;;554.97;;
29280;SDS011;25048;49.590;11.026;2023-02-28T15:30:07;766.53;;;539.30;;
29280;SDS011;25048;49.590;11.026;2023-02-28T15:32:37;830.23;;;551.20;;
29280;SDS011;25048;49.590;11.026;2023-02-28T15:37:57;804.27;;;543.00;;
29280;SDS011;25048;49.590;11.026;2023-02-28T15:40:49;725.10;;;529.13;;
29280;SDS011;25048;49.590;11.026;2023-02-28T15:43:18;749.93;;;546.37;;
29280;SDS011;25048;49.590;11.026;2023-02-28T15:45:57;768.70;;;529.30;;
29280;SDS011;25048;49.590;11.026;2023-02-28T15:48:27;762.13;;;526.30;;
29280;SDS011;25048;49.590;11.026;2023-02-28T15:51:16;769.70;;;502.53;;
29280;SDS011;25048;49.590;11.026;2023-02-28T15:54:04;757.20;;;514.90;;
29280;SDS011;25048;49.590;11.026;2023-02-28T15:56:49;539.10;;;487.33;;
29280;SDS011;25048;49.590;11.026;2023-02-28T15:59:15;445.90;;;407.40;;
29280;SDS011;25048;49.590;11.026;2023-02-28T16:02:13;387.27;;;356.07;;
29280;SDS011;25048;49.590;11.026;2023-02-28T16:05:00;404.00;;;370.27;;
29280;SDS011;25048;49.590;11.026;2023-02-28T16:07:29;413.60;;;378.60;;
29280;SDS011;25048;49.590;11.026;2023-02-28T16:09:57;403.73;;;367.23;;
29280;SDS011;25048;49.590;11.026;2023-02-28T16:12:32;431.53;;;391.23;;
29280;SDS011;25048;49.590;11.026;2023-02-28T16:14:57;424.00;;;383.73;;
29280;SDS011;25048;49.590;11.026;2023-02-28T16:17:33;458.03;;;405.90;;